Карточка аэропорта UMII

Внимание!
Информация на этой странице в стадии наполнения.
Если вы не увидели какой-то информации, или заметили неточность - пожалуйста сообщите нам!
Спасибо!
Команда RU-STAFF
Название аэропортаVitebsk
Название аэропорта (англ.)Vitebsk
Превышение682 ft. (207.9 m.)
Координаты55°7.5839999999998', 30°20.982'
Высота перехода6000 ft
Эшелон переходаFL80; QNH<977hPa - FL90
Коды ответчика0033; 6230-6277
Зона ОрВДМинск РПИ (UMMV)
Данные METARUMII 280900Z 15003MPS 100V190 9999 FEW030TCU 25/11 Q1022 NOSIG
Проноз погоды (TAF)
NOTAMshow/hide NOTAM
AWOS   TABLE

Информация о ВПП

ВПП Длина ВПП (м.) Покрытие Курс ВПП Частота ILS
052606Цементобетон53 
232606Цементобетон233111.9

Диспетчерские позиции




Спутниковое изображение